Time;durP1;ratioP1;P1;durP2;ratioP2;P2;SDS_P1;SDS_P2;PMS_P1;PMS_P2;Temp;Humidity;BMP_temperature;BMP_pressure;BME280_temperature;BME280_humidity;BME280_pressure;Samples;Min_cycle;Max_cycle;Signal;HPM_P1;HPM_P2
2023/03/17 00:00:43;;;;;;;8.73;3.53;;;6.50;99.90;;;;;;4970595;28;20077;-84
2023/03/17 00:03:19;;;;;;;5.85;2.95;;;6.60;99.90;;;;;;4957993;28;20050;-84
2023/03/17 00:05:44;;;;;;;5.95;3.50;;;6.60;99.90;;;;;;4974058;28;20050;-84
2023/03/17 00:08:18;;;;;;;10.10;3.10;;;6.60;99.90;;;;;;4958823;28;20084;-84
2023/03/17 00:10:44;;;;;;;5.82;3.00;;;6.70;99.90;;;;;;4973637;28;20043;-84
2023/03/17 00:13:11;;;;;;;7.07;2.90;;;7.00;99.90;;;;;;4958530;28;20046;-84
2023/03/17 00:15:36;;;;;;;4.70;2.80;;;6.90;99.90;;;;;;4973761;28;20042;-85
2023/03/17 00:18:02;;;;;;;6.97;3.20;;;6.90;99.90;;;;;;4958629;28;20068;-84
2023/03/17 00:20:31;;;;;;;5.35;3.28;;;6.80;99.90;;;;;;4957488;28;20508;-84
2023/03/17 00:23:02;;;;;;;5.78;2.78;;;6.90;99.90;;;;;;4974129;28;20581;-85
2023/03/17 00:25:31;;;;;;;5.20;2.67;;;6.90;99.90;;;;;;4974219;28;20046;-85
2023/03/17 00:27:58;;;;;;;6.82;2.78;;;6.90;99.90;;;;;;4958737;28;20054;-84
2023/03/17 00:30:25;;;;;;;8.05;2.78;;;6.90;99.90;;;;;;4956922;28;20494;-84
2023/03/17 00:32:54;;;;;;;5.07;2.45;;;6.90;99.90;;;;;;4958282;28;20092;-84
2023/03/17 00:35:22;;;;;;;6.57;2.78;;;6.90;99.90;;;;;;4956930;28;20046;-84
2023/03/17 00:37:51;;;;;;;7.22;2.67;;;6.90;99.90;;;;;;4957309;28;20050;-84
2023/03/17 00:40:21;;;;;;;7.50;3.05;;;6.90;99.90;;;;;;4962002;28;20046;-85
2023/03/17 00:42:47;;;;;;;9.32;2.58;;;6.90;99.90;;;;;;4964412;28;20248;-85
2023/03/17 00:45:14;;;;;;;5.32;2.40;;;6.90;99.90;;;;;;4945706;28;20491;-84
2023/03/17 00:47:40;;;;;;;4.88;2.45;;;7.00;99.90;;;;;;4946773;28;20371;-85
2023/03/17 00:50:11;;;;;;;7.07;2.72;;;7.00;99.90;;;;;;4947070;28;20049;-84
2023/03/17 00:52:37;;;;;;;6.20;2.60;;;7.00;99.90;;;;;;4962775;28;20050;-84
2023/03/17 00:55:05;;;;;;;5.38;2.53;;;7.00;99.90;;;;;;4945785;28;20042;-84
2023/03/17 00:57:30;;;;;;;5.25;2.40;;;7.10;99.90;;;;;;4946900;28;20047;-84
2023/03/17 00:59:56;;;;;;;6.57;2.50;;;7.10;99.90;;;;;;4943849;28;20946;-84
2023/03/17 01:02:23;;;;;;;6.60;2.78;;;7.10;99.90;;;;;;4938026;28;20043;-84
2023/03/17 01:04:49;;;;;;;6.70;2.72;;;7.10;99.90;;;;;;4938538;28;20490;-85
2023/03/17 01:07:15;;;;;;;9.07;3.22;;;7.20;99.90;;;;;;4937627;28;20054;-85
2023/03/17 01:09:41;;;;;;;7.47;2.95;;;7.20;99.90;;;;;;4938372;28;20137;-85
2023/03/17 01:12:11;;;;;;;7.20;2.60;;;7.20;99.90;;;;;;4937444;28;20047;-85
2023/03/17 01:14:37;;;;;;;5.60;2.92;;;7.20;99.90;;;;;;4937773;28;20113;-84
2023/03/17 01:17:05;;;;;;;6.90;2.95;;;7.30;99.90;;;;;;4938480;28;20051;-84
2023/03/17 01:19:30;;;;;;;7.75;2.60;;;7.30;99.90;;;;;;4943062;28;20055;-84
2023/03/17 01:21:56;;;;;;;4.68;2.42;;;7.30;99.90;;;;;;4953377;28;20405;-85
2023/03/17 01:24:22;;;;;;;5.38;2.60;;;7.30;99.90;;;;;;4953734;28;20043;-85
2023/03/17 01:26:48;;;;;;;5.78;2.88;;;7.30;99.90;;;;;;4952867;28;20086;-84
2023/03/17 01:29:13;;;;;;;5.82;2.45;;;7.30;99.90;;;;;;4954009;28;20140;-84
2023/03/17 01:31:40;;;;;;;8.85;2.90;;;7.30;99.90;;;;;;4953584;28;20049;-85
2023/03/17 01:34:05;;;;;;;6.72;2.95;;;7.30;99.90;;;;;;4936818;28;20051;-85
2023/03/17 01:36:31;;;;;;;7.18;2.22;;;7.30;99.90;;;;;;4936315;28;20458;-85
2023/03/17 01:38:57;;;;;;;5.07;2.85;;;7.30;99.90;;;;;;4954193;28;20054;-84
2023/03/17 01:41:23;;;;;;;5.40;2.65;;;7.20;99.90;;;;;;4952678;28;20057;-84
2023/03/17 01:43:50;;;;;;;7.72;2.83;;;7.20;99.90;;;;;;4953086;28;20065;-84
2023/03/17 01:46:28;;;;;;;6.57;2.80;;;7.20;99.90;;;;;;4937221;28;20507;-84
2023/03/17 01:49:18;;;;;;;5.57;2.80;;;7.20;99.90;;;;;;4952888;28;20047;-84
2023/03/17 01:51:54;;;;;;;5.13;2.72;;;7.10;99.90;;;;;;4936752;28;20497;-85
2023/03/17 01:54:27;;;;;;;5.55;2.75;;;7.10;99.90;;;;;;4952841;28;20054;-84
2023/03/17 01:56:59;;;;;;;7.95;2.95;;;7.20;99.90;;;;;;4952948;28;20141;-84
2023/03/17 01:59:33;;;;;;;7.13;2.58;;;7.10;99.90;;;;;;4953940;28;20046;-84
2023/03/17 02:02:04;;;;;;;5.35;3.00;;;7.10;99.90;;;;;;4952702;28;20039;-84
2023/03/17 02:04:31;;;;;;;6.45;2.85;;;7.10;99.90;;;;;;4953209;28;20082;-84
2023/03/17 02:06:57;;;;;;;5.55;2.92;;;7.00;99.90;;;;;;4952921;28;20105;-84
2023/03/17 02:09:23;;;;;;;8.32;3.20;;;7.00;99.90;;;;;;4936183;28;20538;-84
2023/03/17 02:11:49;;;;;;;6.63;2.95;;;7.00;99.90;;;;;;4937260;28;20101;-84
2023/03/17 02:14:15;;;;;;;5.65;2.80;;;6.90;99.90;;;;;;4937469;28;20490;-84
2023/03/17 02:16:43;;;;;;;7.05;3.67;;;7.30;99.90;;;;;;4935667;28;20054;-84
2023/03/17 02:19:10;;;;;;;7.30;3.05;;;6.90;99.90;;;;;;4939270;28;20074;-84
2023/03/17 02:21:40;;;;;;;7.00;3.00;;;6.80;99.90;;;;;;4951942;28;20056;-84
2023/03/17 02:24:16;;;;;;;7.38;3.05;;;6.80;99.90;;;;;;4952173;28;20057;-83
2023/03/17 02:26:44;;;;;;;8.25;2.70;;;6.80;99.90;;;;;;4952713;28;20505;-84
2023/03/17 02:29:11;;;;;;;7.78;3.17;;;6.70;99.90;;;;;;4952720;28;20081;-83
2023/03/17 02:31:37;;;;;;;7.60;2.78;;;7.10;99.90;;;;;;4951705;28;20043;-84
2023/03/17 02:34:03;;;;;;;5.07;2.90;;;6.70;99.90;;;;;;4952751;28;20050;-84
2023/03/17 02:36:28;;;;;;;6.72;3.00;;;6.70;99.90;;;;;;4934971;28;20101;-84
2023/03/17 02:38:56;;;;;;;6.90;3.20;;;6.70;99.90;;;;;;4936597;28;20097;-85
2023/03/17 02:41:22;;;;;;;6.53;3.15;;;6.70;99.90;;;;;;4935967;28;20057;-85
2023/03/17 02:43:48;;;;;;;8.13;2.88;;;6.70;99.90;;;;;;4951433;28;20063;-85
2023/03/17 02:46:13;;;;;;;7.90;2.65;;;6.60;99.90;;;;;;4936298;28;20086;-84
2023/03/17 02:48:39;;;;;;;6.47;2.90;;;6.60;99.90;;;;;;4952056;28;20057;-84
2023/03/17 02:51:05;;;;;;;4.72;2.30;;;6.70;99.90;;;;;;4950660;28;20130;-84
2023/03/17 02:53:31;;;;;;;7.30;2.72;;;6.70;99.90;;;;;;4968356;28;20057;-84
2023/03/17 02:55:57;;;;;;;6.00;2.67;;;6.70;99.90;;;;;;4936604;28;20372;-84
2023/03/17 02:58:23;;;;;;;6.70;2.53;;;6.70;99.90;;;;;;4951917;28;20435;-84
2023/03/17 03:00:48;;;;;;;5.75;3.38;;;6.90;99.90;;;;;;4951840;28;20483;-85
2023/03/17 03:03:15;;;;;;;7.78;2.35;;;6.80;99.90;;;;;;4952579;28;20053;-85
2023/03/17 03:05:41;;;;;;;6.18;2.75;;;6.80;99.90;;;;;;4934753;28;20475;-85
2023/03/17 03:08:07;;;;;;;5.93;2.90;;;6.80;99.90;;;;;;4936416;28;20688;-85
2023/03/17 03:10:33;;;;;;;7.88;3.38;;;6.90;99.90;;;;;;4936148;28;20078;-85
2023/03/17 03:13:00;;;;;;;9.27;3.38;;;6.80;99.90;;;;;;4935717;28;20085;-85
2023/03/17 03:15:26;;;;;;;5.18;2.83;;;6.70;99.90;;;;;;4952585;28;20038;-85
2023/03/17 03:17:51;;;;;;;10.30;2.95;;;6.70;99.90;;;;;;4951798;28;20576;-85
2023/03/17 03:20:18;;;;;;;5.03;2.83;;;6.70;99.90;;;;;;4950620;28;20038;-84
2023/03/17 03:22:44;;;;;;;7.32;2.90;;;6.70;99.90;;;;;;4951727;28;20047;-85
2023/03/17 03:25:09;;;;;;;4.95;2.90;;;6.70;99.90;;;;;;4935961;28;20043;-84
2023/03/17 03:27:35;;;;;;;7.25;2.90;;;6.90;99.90;;;;;;4952008;28;20053;-84
2023/03/17 03:30:01;;;;;;;8.98;3.67;;;7.10;99.90;;;;;;4935277;28;20483;-84
2023/03/17 03:32:27;;;;;;;6.25;2.83;;;6.70;99.90;;;;;;4936305;28;20058;-85
2023/03/17 03:34:53;;;;;;;6.72;3.25;;;6.70;99.90;;;;;;4934865;28;20054;-84
2023/03/17 03:37:20;;;;;;;7.75;2.83;;;6.70;99.90;;;;;;4935545;28;20042;-85
2023/03/17 03:39:46;;;;;;;8.07;3.08;;;6.70;99.90;;;;;;4935367;28;20137;-85
2023/03/17 03:42:12;;;;;;;9.43;3.10;;;6.70;99.90;;;;;;4935356;28;20042;-85
2023/03/17 03:44:37;;;;;;;7.20;3.03;;;6.70;99.90;;;;;;4935878;28;20489;-85
2023/03/17 03:47:03;;;;;;;7.28;3.20;;;6.80;99.90;;;;;;4950803;28;20050;-85
2023/03/17 03:49:29;;;;;;;6.15;2.90;;;6.70;99.90;;;;;;4952119;28;20109;-84
2023/03/17 03:51:55;;;;;;;7.53;3.20;;;6.80;99.90;;;;;;4950767;28;20050;-85
2023/03/17 03:54:20;;;;;;;6.97;3.20;;;6.80;99.90;;;;;;4934716;28;20062;-84
2023/03/17 03:56:46;;;;;;;10.40;3.00;;;6.80;99.90;;;;;;4935737;28;20074;-85
2023/03/17 03:59:12;;;;;;;7.00;2.95;;;6.80;99.90;;;;;;4935562;28;20043;-85
2023/03/17 04:01:38;;;;;;;6.13;2.95;;;6.80;99.90;;;;;;4935018;28;20047;-85
2023/03/17 04:04:04;;;;;;;6.30;2.67;;;6.80;99.90;;;;;;4935736;28;20050;-84
2023/03/17 04:06:30;;;;;;;6.65;2.97;;;6.80;99.90;;;;;;4934535;28;20442;-84
2023/03/17 04:08:55;;;;;;;9.80;3.38;;;6.70;99.90;;;;;;4934906;28;20180;-85
2023/03/17 04:11:21;;;;;;;9.60;3.47;;;6.70;99.90;;;;;;4934614;28;20047;-84
2023/03/17 04:13:47;;;;;;;6.03;2.83;;;6.70;99.90;;;;;;4951976;28;20070;-85
2023/03/17 04:16:12;;;;;;;6.20;2.90;;;6.70;99.90;;;;;;4934804;28;20050;-85
2023/03/17 04:18:38;;;;;;;7.68;3.30;;;6.70;99.90;;;;;;4935052;28;20483;-84
2023/03/17 04:21:05;;;;;;;6.63;3.08;;;7.10;99.90;;;;;;4950264;28;20046;-84
2023/03/17 04:23:30;;;;;;;7.43;3.03;;;6.70;99.90;;;;;;4934932;28;20055;-85
2023/03/17 04:25:57;;;;;;;5.78;2.70;;;6.70;99.90;;;;;;4935067;28;20129;-84
2023/03/17 04:28:22;;;;;;;7.03;2.83;;;6.70;99.90;;;;;;4935863;28;20058;-85
2023/03/17 04:30:48;;;;;;;6.15;3.00;;;6.70;99.90;;;;;;4950318;28;20046;-85
2023/03/17 04:33:14;;;;;;;4.70;2.72;;;6.70;99.90;;;;;;4935168;28;20086;-84
2023/03/17 04:35:40;;;;;;;5.20;2.97;;;6.70;99.90;;;;;;4934604;28;20046;-85
2023/03/17 04:38:05;;;;;;;7.28;3.33;;;6.70;99.90;;;;;;4950868;28;20124;-85
2023/03/17 04:40:31;;;;;;;6.80;2.95;;;6.60;99.90;;;;;;4950702;28;20498;-84
2023/03/17 04:42:57;;;;;;;7.63;3.25;;;6.60;99.90;;;;;;4934522;28;20067;-84
2023/03/17 04:45:23;;;;;;;5.80;2.75;;;6.60;99.90;;;;;;4935298;28;20133;-84
2023/03/17 04:47:48;;;;;;;8.15;3.17;;;6.60;99.90;;;;;;4935969;28;20121;-84
2023/03/17 04:50:14;;;;;;;6.28;3.00;;;6.60;99.90;;;;;;4937618;28;20471;-85
2023/03/17 04:52:40;;;;;;;6.57;2.80;;;6.50;99.90;;;;;;4939005;28;20487;-85
2023/03/17 04:55:07;;;;;;;13.10;3.33;;;6.50;99.90;;;;;;4954532;28;20045;-85
2023/03/17 04:57:33;;;;;;;6.05;2.85;;;6.50;99.90;;;;;;4953497;28;20082;-84
2023/03/17 04:59:59;;;;;;;6.57;3.08;;;6.40;99.90;;;;;;4938370;28;20047;-84
2023/03/17 05:02:25;;;;;;;7.40;3.08;;;6.40;99.90;;;;;;4938686;28;20047;-84
2023/03/17 05:04:51;;;;;;;5.47;2.97;;;6.30;99.90;;;;;;4953686;28;20077;-85
2023/03/17 05:07:17;;;;;;;10.90;2.92;;;6.30;99.90;;;;;;4937983;28;20055;-85
2023/03/17 05:09:42;;;;;;;6.15;3.20;;;6.40;99.90;;;;;;4938457;28;20046;-84
2023/03/17 05:12:09;;;;;;;9.90;3.20;;;6.30;99.90;;;;;;4937138;28;20046;-84
2023/03/17 05:14:35;;;;;;;7.38;3.28;;;6.30;99.90;;;;;;4938488;28;20465;-84
2023/03/17 05:17:01;;;;;;;6.72;3.20;;;6.30;99.90;;;;;;4938275;28;20053;-84
2023/03/17 05:19:27;;;;;;;5.43;2.67;;;6.30;99.90;;;;;;4953865;28;20141;-85
2023/03/17 05:21:52;;;;;;;8.05;3.20;;;6.70;99.90;;;;;;4953252;28;20051;-85
2023/03/17 05:24:18;;;;;;;8.38;2.97;;;6.40;99.90;;;;;;4937926;28;20049;-84
2023/03/17 05:26:44;;;;;;;5.95;2.90;;;6.40;99.90;;;;;;4938519;28;20130;-84
2023/03/17 05:29:10;;;;;;;8.88;3.17;;;6.40;99.90;;;;;;4955204;28;20125;-85
2023/03/17 05:31:36;;;;;;;6.07;3.20;;;6.40;99.90;;;;;;4956761;28;20049;-85
2023/03/17 05:34:02;;;;;;;6.57;2.95;;;6.50;99.90;;;;;;4956689;28;20091;-84
2023/03/17 05:36:28;;;;;;;8.95;3.65;;;6.50;99.90;;;;;;4972962;28;20119;-85
2023/03/17 05:38:55;;;;;;;6.07;2.90;;;6.40;99.90;;;;;;4973319;28;20490;-85
2023/03/17 05:41:21;;;;;;;8.30;3.22;;;6.50;99.90;;;;;;4956073;28;20157;-85
2023/03/17 05:43:47;;;;;;;5.50;2.85;;;6.60;99.90;;;;;;4956424;28;20050;-84
2023/03/17 05:46:13;;;;;;;5.88;3.10;;;6.60;99.90;;;;;;4956273;28;20494;-84
2023/03/17 05:48:39;;;;;;;6.47;3.08;;;6.60;99.90;;;;;;4956490;28;20050;-84
2023/03/17 05:51:05;;;;;;;7.47;2.72;;;6.90;99.90;;;;;;4955833;28;20053;-84
2023/03/17 05:53:31;;;;;;;8.68;2.72;;;6.70;99.90;;;;;;4972623;28;20050;-85
2023/03/17 05:55:57;;;;;;;5.03;2.67;;;6.70;99.90;;;;;;4956857;28;20377;-84
2023/03/17 05:58:22;;;;;;;7.13;3.05;;;6.70;99.90;;;;;;4956523;28;20042;-84
2023/03/17 06:00:49;;;;;;;5.20;2.70;;;6.70;99.90;;;;;;4954860;28;20055;-84
2023/03/17 06:03:14;;;;;;;6.90;3.47;;;6.90;99.90;;;;;;4956544;28;20049;-85
2023/03/17 06:05:40;;;;;;;7.40;3.42;;;6.70;99.90;;;;;;4955756;28;20043;-85
2023/03/17 06:08:06;;;;;;;7.45;3.33;;;6.70;99.90;;;;;;4971685;28;20050;-84
2023/03/17 06:10:32;;;;;;;8.35;4.00;;;6.80;99.90;;;;;;4972251;28;20147;-84
2023/03/17 06:12:58;;;;;;;5.88;2.80;;;6.80;99.90;;;;;;4972357;28;20046;-84
2023/03/17 06:15:24;;;;;;;8.73;3.53;;;7.00;99.90;;;;;;4955530;28;20050;-84
2023/03/17 06:17:50;;;;;;;6.47;3.20;;;6.80;99.90;;;;;;4956530;28;20054;-85
2023/03/17 06:20:17;;;;;;;6.70;3.10;;;6.80;99.90;;;;;;4951595;28;20043;-85
2023/03/17 06:22:43;;;;;;;5.97;3.15;;;6.90;99.90;;;;;;4952369;28;20061;-85
2023/03/17 06:25:09;;;;;;;8.63;3.60;;;7.30;99.90;;;;;;4936521;28;20050;-85
2023/03/17 06:27:36;;;;;;;5.32;2.78;;;6.90;99.90;;;;;;4949253;28;20034;-84
2023/03/17 06:30:04;;;;;;;7.53;2.97;;;7.00;99.90;;;;;;4944565;28;20145;-85
2023/03/17 06:32:30;;;;;;;5.95;2.70;;;7.00;99.90;;;;;;4945215;28;20122;-84
2023/03/17 06:34:56;;;;;;;7.43;3.10;;;7.10;99.90;;;;;;4946589;28;20856;-85
2023/03/17 06:37:23;;;;;;;7.28;3.90;;;7.10;99.90;;;;;;4944887;28;20034;-86
2023/03/17 06:39:48;;;;;;;5.72;2.75;;;7.20;99.90;;;;;;4946599;28;20430;-85
2023/03/17 06:42:14;;;;;;;5.95;2.72;;;7.20;99.90;;;;;;4943726;28;20043;-84
2023/03/17 06:44:40;;;;;;;6.03;3.10;;;7.20;99.90;;;;;;4960859;28;20426;-84
2023/03/17 06:47:06;;;;;;;9.18;3.35;;;7.30;99.90;;;;;;4961037;28;20049;-84
2023/03/17 06:49:32;;;;;;;7.03;2.92;;;7.30;99.90;;;;;;4942806;28;20046;-84
2023/03/17 06:51:58;;;;;;;5.35;3.10;;;7.40;99.90;;;;;;4961030;28;20084;-85
2023/03/17 06:54:24;;;;;;;9.18;3.33;;;7.80;99.90;;;;;;4944723;28;20038;-85
2023/03/17 06:56:51;;;;;;;7.57;2.95;;;7.40;99.90;;;;;;4942790;28;20047;-84
2023/03/17 06:59:18;;;;;;;7.03;3.63;;;7.40;99.90;;;;;;4944300;28;20031;-85
2023/03/17 07:01:45;;;;;;;9.10;3.22;;;7.30;99.90;;;;;;4944699;28;20397;-85
2023/03/17 07:04:11;;;;;;;8.27;3.05;;;7.30;99.90;;;;;;4961323;28;20054;-85
2023/03/17 07:06:36;;;;;;;7.18;3.10;;;7.40;99.90;;;;;;4958985;28;20465;-85
2023/03/17 07:09:02;;;;;;;11.35;3.38;;;7.40;99.90;;;;;;4947713;28;20443;-85
2023/03/17 07:11:29;;;;;;;7.10;3.30;;;7.40;99.90;;;;;;4959498;28;20047;-85
2023/03/17 07:13:55;;;;;;;8.15;3.40;;;7.40;99.90;;;;;;4959796;28;20047;-84
2023/03/17 07:16:21;;;;;;;8.20;2.85;;;7.50;99.90;;;;;;4944545;28;20096;-84
2023/03/17 07:18:47;;;;;;;5.00;2.90;;;7.50;99.90;;;;;;4960019;28;20050;-84
2023/03/17 07:21:13;;;;;;;8.13;3.47;;;7.60;99.90;;;;;;4958601;28;20095;-84
2023/03/17 07:23:39;;;;;;;9.75;3.47;;;7.60;99.90;;;;;;4960433;28;20077;-85
2023/03/17 07:26:05;;;;;;;7.25;2.80;;;7.60;99.90;;;;;;4960001;28;20043;-85
2023/03/17 07:28:31;;;;;;;6.43;3.10;;;7.70;99.90;;;;;;4960039;28;20134;-84
2023/03/17 07:30:56;;;;;;;10.68;3.45;;;7.70;99.90;;;;;;4960923;28;20441;-84
2023/03/17 07:33:23;;;;;;;5.78;2.95;;;7.80;99.90;;;;;;4959689;28;20049;-84
2023/03/17 07:35:49;;;;;;;9.55;3.22;;;7.80;99.90;;;;;;4958434;28;20038;-84
2023/03/17 07:38:17;;;;;;;5.72;3.13;;;7.90;99.90;;;;;;4961312;28;20061;-85
2023/03/17 07:40:46;;;;;;;8.05;2.92;;;8.00;99.90;;;;;;4943325;28;20054;-85
2023/03/17 07:43:12;;;;;;;8.55;3.17;;;8.10;99.90;;;;;;4943768;28;20050;-86
2023/03/17 07:45:38;;;;;;;9.23;3.45;;;8.20;99.90;;;;;;4961021;28;20046;-85
2023/03/17 07:48:05;;;;;;;8.13;3.33;;;8.20;99.90;;;;;;4944528;28;20057;-84
2023/03/17 07:50:32;;;;;;;7.43;3.08;;;8.30;99.90;;;;;;4970485;28;20082;-85
2023/03/17 07:52:57;;;;;;;6.47;3.00;;;8.40;99.90;;;;;;4970690;28;20425;-84
2023/03/17 07:55:23;;;;;;;5.22;2.90;;;8.50;99.90;;;;;;4972236;28;20133;-84
2023/03/17 07:57:49;;;;;;;8.75;3.42;;;8.60;99.90;;;;;;4955310;28;20474;-84
2023/03/17 08:00:16;;;;;;;5.47;2.92;;;8.70;99.90;;;;;;4970663;28;20038;-84
2023/03/17 08:02:41;;;;;;;7.85;3.58;;;8.80;99.90;;;;;;4971331;28;20049;-84
2023/03/17 08:05:08;;;;;;;8.32;3.20;;;8.90;99.90;;;;;;4964370;28;20042;-85
2023/03/17 08:07:36;;;;;;;7.35;3.00;;;8.90;99.90;;;;;;4969074;28;20112;-85
2023/03/17 08:10:04;;;;;;;6.05;3.15;;;8.90;99.90;;;;;;4953341;28;20057;-84
2023/03/17 08:12:30;;;;;;;8.10;2.75;;;9.00;99.90;;;;;;4936318;28;20050;-84
2023/03/17 08:14:56;;;;;;;9.77;3.10;;;9.10;99.90;;;;;;4951082;28;20051;-83
2023/03/17 08:17:25;;;;;;;7.95;3.10;;;9.10;99.90;;;;;;4936035;28;20066;-84
2023/03/17 08:19:52;;;;;;;7.68;3.50;;;9.20;99.90;;;;;;4951098;28;20484;-85
2023/03/17 08:22:18;;;;;;;8.77;3.33;;;9.30;99.90;;;;;;4936000;28;20062;-84
2023/03/17 08:24:44;;;;;;;10.27;3.13;;;9.30;99.90;;;;;;4971669;28;20054;-85
2023/03/17 08:27:10;;;;;;;7.10;3.17;;;9.40;99.90;;;;;;4971333;28;20042;-86
2023/03/17 08:29:35;;;;;;;9.07;3.38;;;9.40;99.90;;;;;;4939472;28;20039;-85
2023/03/17 08:32:02;;;;;;;5.68;3.00;;;9.40;99.90;;;;;;4958007;28;20390;-85
2023/03/17 08:34:28;;;;;;;8.25;3.65;;;9.50;99.90;;;;;;4948356;28;20042;-84
2023/03/17 08:36:53;;;;;;;6.97;3.17;;;9.50;99.90;;;;;;4963115;28;20069;-84
2023/03/17 08:39:19;;;;;;;4.93;2.80;;;9.50;99.90;;;;;;4957140;28;20156;-86
2023/03/17 08:41:45;;;;;;;6.93;3.20;;;9.50;99.90;;;;;;4965057;28;20042;-84
2023/03/17 08:44:13;;;;;;;16.30;3.13;;;9.50;99.90;;;;;;4961818;28;20069;-85
2023/03/17 08:46:39;;;;;;;8.60;3.22;;;9.50;99.90;;;;;;4963736;28;20042;-86
2023/03/17 08:49:06;;;;;;;7.13;3.10;;;9.50;99.90;;;;;;4958736;28;20050;-84
2023/03/17 08:51:34;;;;;;;6.07;3.30;;;9.50;99.90;;;;;;4951002;28;20105;-84
2023/03/17 08:54:01;;;;;;;5.93;2.97;;;9.50;99.90;;;;;;4942589;28;20042;-84
2023/03/17 08:56:27;;;;;;;5.88;3.20;;;9.50;99.90;;;;;;4935390;28;20043;-84
2023/03/17 08:58:54;;;;;;;6.13;3.22;;;9.60;99.90;;;;;;4936502;28;20063;-84
2023/03/17 09:01:19;;;;;;;8.45;2.78;;;9.70;99.90;;;;;;4935616;28;20077;-84
2023/03/17 09:03:45;;;;;;;7.30;3.08;;;9.80;99.90;;;;;;4936152;28;20047;-84
2023/03/17 09:06:12;;;;;;;10.95;3.60;;;9.90;99.90;;;;;;4935642;28;20498;-83
2023/03/17 09:08:43;;;;;;;9.05;3.10;;;10.00;99.90;;;;;;4936005;28;20125;-83
2023/03/17 09:11:12;;;;;;;6.20;3.47;;;10.10;99.90;;;;;;4935687;28;20133;-83
2023/03/17 09:13:38;;;;;;;11.35;3.00;;;10.20;99.90;;;;;;4936047;28;20569;-83
2023/03/17 09:16:06;;;;;;;7.00;3.45;;;10.30;99.90;;;;;;4935802;28;20173;-83
2023/03/17 09:18:32;;;;;;;11.40;3.55;;;10.30;99.90;;;;;;4935213;28;20046;-83
2023/03/17 09:20:59;;;;;;;7.88;3.13;;;10.30;99.90;;;;;;4963292;28;20057;-83
2023/03/17 09:23:26;;;;;;;6.47;3.70;;;10.50;99.90;;;;;;4970643;28;20145;-84
2023/03/17 09:25:52;;;;;;;9.85;3.33;;;10.60;99.90;;;;;;4970208;28;20193;-83
2023/03/17 09:28:18;;;;;;;9.25;3.38;;;10.60;99.90;;;;;;4954817;28;20508;-84
2023/03/17 09:30:44;;;;;;;11.32;3.30;;;10.70;99.90;;;;;;4954694;28;20042;-84
2023/03/17 09:33:11;;;;;;;6.45;2.97;;;10.70;99.90;;;;;;4955838;28;20050;-84
2023/03/17 09:35:38;;;;;;;6.63;3.70;;;10.70;99.90;;;;;;4952380;28;20050;-84
2023/03/17 09:38:05;;;;;;;12.60;3.92;;;10.70;99.90;;;;;;4937932;28;20559;-84
2023/03/17 09:40:36;;;;;;;8.40;3.30;;;10.80;99.90;;;;;;4941253;28;20042;-84
2023/03/17 09:43:19;;;;;;;7.22;3.45;;;10.80;99.90;;;;;;4946234;28;20577;-84
2023/03/17 09:45:45;;;;;;;8.43;3.30;;;10.90;99.90;;;;;;4961994;28;20120;-84
2023/03/17 09:48:35;;;;;;;7.90;3.13;;;10.90;99.90;;;;;;4960805;28;20031;-83
2023/03/17 09:51:07;;;;;;;7.15;3.95;;;11.00;99.90;;;;;;4959638;28;20086;-84
2023/03/17 09:53:46;;;;;;;5.60;2.95;;;11.10;99.90;;;;;;4939405;28;20116;-83
2023/03/17 09:56:15;;;;;;;7.47;3.95;;;11.10;99.90;;;;;;4940498;28;20047;-84
2023/03/17 09:58:49;;;;;;;9.30;3.60;;;11.20;99.90;;;;;;4938530;28;20042;-83
2023/03/17 10:01:15;;;;;;;11.65;4.15;;;11.20;99.90;;;;;;4942595;28;20038;-84
2023/03/17 10:03:41;;;;;;;10.07;3.90;;;11.20;99.90;;;;;;4972305;28;20409;-84
2023/03/17 10:06:37;;;;;;;8.30;3.42;;;11.30;99.90;;;;;;4971615;28;20039;-84
2023/03/17 10:09:31;;;;;;;9.57;3.58;;;11.40;99.90;;;;;;4956819;28;20061;-85
2023/03/17 10:12:09;;;;;;;8.45;2.97;;;11.50;99.90;;;;;;4972793;28;20100;-85
2023/03/17 10:14:44;;;;;;;6.28;3.63;;;11.70;99.90;;;;;;4972274;28;20127;-85
2023/03/17 10:17:16;;;;;;;8.95;3.63;;;11.80;99.90;;;;;;4972607;28;20069;-85
2023/03/17 10:19:46;;;;;;;9.57;3.42;;;11.90;99.90;;;;;;4955719;28;20101;-84
2023/03/17 10:22:27;;;;;;;6.30;3.45;;;12.00;99.90;;;;;;4935809;28;20082;-84
2023/03/17 10:25:01;;;;;;;8.35;3.83;;;12.10;99.90;;;;;;4936878;28;20110;-84
2023/03/17 10:27:30;;;;;;;9.40;4.18;;;12.00;99.90;;;;;;4936948;28;20434;-85
2023/03/17 10:29:55;;;;;;;9.57;4.13;;;12.10;99.90;;;;;;4952942;28;20051;-84
2023/03/17 10:32:21;;;;;;;8.25;3.58;;;12.20;99.90;;;;;;4936961;28;20061;-85
2023/03/17 10:34:47;;;;;;;10.82;3.63;;;12.30;99.90;;;;;;4952644;28;20104;-84
2023/03/17 10:37:20;;;;;;;7.60;3.63;;;12.30;99.90;;;;;;4952013;28;20042;-83
2023/03/17 10:39:52;;;;;;;7.43;3.42;;;12.50;99.90;;;;;;4937344;28;20089;-84
2023/03/17 10:42:23;;;;;;;11.35;3.55;;;12.60;99.90;;;;;;4952210;28;20634;-84
2023/03/17 10:44:55;;;;;;;10.35;3.97;;;12.80;99.90;;;;;;4952854;28;20093;-84
2023/03/17 10:47:28;;;;;;;8.32;3.50;;;12.90;99.90;;;;;;4952680;28;20436;-84
2023/03/17 10:49:56;;;;;;;9.30;3.75;;;13.00;99.90;;;;;;4969009;28;20486;-84
2023/03/17 10:52:26;;;;;;;7.13;3.15;;;13.20;99.90;;;;;;4956433;28;20057;-81
2023/03/17 10:54:53;;;;;;;9.50;3.60;;;13.30;99.90;;;;;;4971522;28;20050;-82
2023/03/17 10:57:20;;;;;;;8.65;3.88;;;13.40;99.90;;;;;;4971709;28;20161;-82
2023/03/17 10:59:51;;;;;;;9.85;4.47;;;13.60;99.90;;;;;;4955705;28;20383;-82
2023/03/17 11:02:26;;;;;;;10.90;4.07;;;13.60;99.90;;;;;;4956139;28;20042;-81
2023/03/17 11:04:58;;;;;;;7.70;3.67;;;13.80;99.90;;;;;;4971143;28;20057;-81
2023/03/17 11:07:35;;;;;;;9.60;4.05;;;13.90;99.90;;;;;;4955585;28;20522;-81
2023/03/17 11:10:02;;;;;;;16.00;4.32;;;14.00;99.90;;;;;;4955219;28;20812;-81
2023/03/17 11:12:35;;;;;;;11.65;4.20;;;14.10;99.90;;;;;;4972279;28;20053;-81
2023/03/17 11:15:04;;;;;;;8.15;3.90;;;14.20;99.90;;;;;;4955408;28;20050;-81
2023/03/17 11:17:36;;;;;;;6.70;3.78;;;14.30;99.90;;;;;;4955605;28;20049;-82
2023/03/17 11:20:12;;;;;;;9.13;3.80;;;14.30;99.90;;;;;;4951107;28;20046;-81
2023/03/17 11:22:45;;;;;;;9.30;3.70;;;14.20;99.90;;;;;;4952764;28;20050;-82
2023/03/17 11:25:18;;;;;;;13.63;4.05;;;14.20;99.90;;;;;;4951539;28;20410;-81
2023/03/17 11:27:52;;;;;;;6.95;3.60;;;14.10;99.90;;;;;;4936420;28;20206;-81
2023/03/17 11:30:30;;;;;;;8.77;3.50;;;14.20;99.90;;;;;;4952032;28;20054;-81
2023/03/17 11:32:59;;;;;;;6.88;4.00;;;14.30;99.90;;;;;;4935978;28;20047;-81
2023/03/17 11:35:40;;;;;;;13.32;4.72;;;14.50;99.90;;;;;;4934945;28;20050;-84
2023/03/17 11:38:23;;;;;;;9.77;3.97;;;14.50;99.90;;;;;;4935370;28;20097;-83
2023/03/17 11:41:01;;;;;;;9.38;4.15;;;14.60;99.90;;;;;;4951999;28;20086;-83
2023/03/17 11:43:44;;;;;;;8.75;3.90;;;14.70;99.90;;;;;;4937081;28;20046;-84
2023/03/17 11:46:26;;;;;;;11.68;4.10;;;14.80;99.90;;;;;;4936548;28;20058;-85
2023/03/17 11:49:14;;;;;;;8.55;4.10;;;14.80;99.90;;;;;;4938519;28;20074;-86
2023/03/17 11:51:51;;;;;;;16.08;4.32;;;14.90;99.90;;;;;;4935551;28;20085;-85
2023/03/17 11:54:26;;;;;;;9.10;3.92;;;15.00;99.90;;;;;;4937422;28;20099;-85
2023/03/17 11:56:58;;;;;;;8.68;3.65;;;15.10;99.90;;;;;;4936942;28;20834;-84
2023/03/17 11:59:36;;;;;;;10.10;4.30;;;15.20;99.90;;;;;;4940463;28;20049;-84
2023/03/17 12:02:29;;;;;;;9.88;4.22;;;15.30;99.90;;;;;;4940710;28;20109;-85
2023/03/17 12:05:05;;;;;;;10.38;4.10;;;15.30;99.90;;;;;;4950625;28;20494;-85
2023/03/17 12:07:38;;;;;;;8.07;4.10;;;15.30;99.90;;;;;;4957732;28;20085;-85
2023/03/17 12:10:04;;;;;;;9.85;4.30;;;15.40;99.90;;;;;;4958297;28;20057;-85
2023/03/17 12:12:38;;;;;;;7.90;3.95;;;15.40;99.90;;;;;;4959525;28;20050;-85
2023/03/17 12:15:13;;;;;;;9.43;4.45;;;15.40;99.90;;;;;;4973004;28;20074;-85
2023/03/17 12:17:52;;;;;;;7.55;4.57;;;15.40;99.90;;;;;;4956680;28;20039;-86
2023/03/17 12:20:26;;;;;;;13.13;4.22;;;15.50;99.90;;;;;;4956245;28;20129;-87
2023/03/17 12:23:00;;;;;;;8.20;4.82;;;15.50;99.90;;;;;;4954980;28;20103;-88
2023/03/17 12:25:31;;;;;;;13.93;4.38;;;15.50;99.90;;;;;;4965336;28;20049;-86
2023/03/17 12:28:14;;;;;;;10.05;4.80;;;15.50;99.90;;;;;;4971073;28;20042;-86
2023/03/17 12:30:48;;;;;;;9.43;4.63;;;15.60;99.90;;;;;;4955220;28;20046;-85
2023/03/17 12:33:23;;;;;;;8.77;4.72;;;15.50;99.90;;;;;;4953165;28;20066;-86
2023/03/17 12:35:49;;;;;;;9.63;4.93;;;15.50;99.90;;;;;;4956246;28;20065;-86
2023/03/17 12:38:30;;;;;;;10.50;5.15;;;15.40;99.90;;;;;;4958917;28;20077;-86
2023/03/17 12:41:22;;;;;;;10.88;5.60;;;15.40;99.90;;;;;;4974888;28;20069;-86
2023/03/17 12:44:04;;;;;;;10.57;5.40;;;15.40;99.90;;;;;;4959137;28;20066;-87
2023/03/17 12:46:41;;;;;;;9.63;5.30;;;15.50;99.90;;;;;;4958622;28;20082;-85
2023/03/17 12:49:26;;;;;;;10.32;5.28;;;15.50;99.90;;;;;;4957972;28;20049;-85
2023/03/17 12:52:09;;;;;;;12.07;5.30;;;15.50;99.90;;;;;;4957575;28;20065;-86
2023/03/17 12:54:38;;;;;;;9.80;5.72;;;15.50;99.90;;;;;;4974509;28;20153;-86
2023/03/17 12:57:18;;;;;;;9.77;5.15;;;15.50;99.90;;;;;;4957979;28;20971;-86
2023/03/17 12:59:47;;;;;;;11.75;5.68;;;15.70;99.90;;;;;;4975247;28;20053;-86